Time;durP1;ratioP1;P1;durP2;ratioP2;P2;SDS_P1;SDS_P2;PMS_P1;PMS_P2;Temp;Humidity;BMP_temperature;BMP_pressure;BME280_temperature;BME280_humidity;BME280_pressure;Samples;Min_cycle;Max_cycle;Signal;HPM_P1;HPM_P2
2023/10/01 00:00:36;;;;;;;0.47;0.47;;;14.00;99.90;;;;;;4407399;32;20536;-62
2023/10/01 00:03:05;;;;;;;1.55;0.62;;;14.10;99.90;;;;;;4433207;32;20097;-61
2023/10/01 00:05:31;;;;;;;0.75;0.75;;;14.20;99.90;;;;;;4435715;32;20544;-61
2023/10/01 00:07:57;;;;;;;1.37;1.15;;;14.20;99.90;;;;;;4435365;32;20065;-62
2023/10/01 00:10:22;;;;;;;0.52;0.52;;;14.20;99.90;;;;;;4432638;32;20179;-61
2023/10/01 00:12:50;;;;;;;0.50;0.50;;;14.10;99.90;;;;;;4435330;32;20085;-61
2023/10/01 00:15:18;;;;;;;0.57;0.57;;;14.10;99.90;;;;;;4423676;32;20552;-61
2023/10/01 00:17:46;;;;;;;0.50;0.50;;;14.20;99.90;;;;;;4436241;32;20066;-62
2023/10/01 00:20:17;;;;;;;0.57;0.57;;;14.20;99.90;;;;;;4407422;32;20098;-62
2023/10/01 00:22:43;;;;;;;31.23;1.05;;;14.20;99.90;;;;;;4426549;32;20084;-62
2023/10/01 00:25:10;;;;;;;21.52;1.75;;;14.20;99.90;;;;;;4433889;32;20065;-62
2023/10/01 00:27:36;;;;;;;2.30;0.70;;;14.20;99.90;;;;;;4407658;32;20089;-62
2023/10/01 00:30:04;;;;;;;1.12;0.90;;;14.10;99.90;;;;;;4429867;32;21416;-61
2023/10/01 00:32:29;;;;;;;2.53;0.80;;;14.10;99.90;;;;;;4419689;32;20102;-62
2023/10/01 00:34:57;;;;;;;0.70;0.70;;;14.20;99.90;;;;;;4421895;32;20101;-61
2023/10/01 00:37:23;;;;;;;1.35;0.80;;;14.10;99.90;;;;;;4414097;32;20065;-61
2023/10/01 00:39:48;;;;;;;1.05;0.73;;;14.10;99.90;;;;;;4431144;32;20077;-62
2023/10/01 00:42:14;;;;;;;1.05;0.95;;;14.10;99.90;;;;;;4429306;32;20473;-61
2023/10/01 00:44:39;;;;;;;4.45;0.85;;;14.20;99.90;;;;;;4437268;32;20065;-61
2023/10/01 00:47:05;;;;;;;0.40;0.40;;;14.20;99.90;;;;;;4415947;32;20086;-62
2023/10/01 00:49:36;;;;;;;0.60;0.60;;;14.10;99.90;;;;;;4433954;32;20090;-62
2023/10/01 00:52:02;;;;;;;0.50;0.45;;;14.10;99.90;;;;;;4428792;32;20080;-61
2023/10/01 00:54:28;;;;;;;10.57;0.82;;;14.10;99.90;;;;;;4436707;32;20070;-61
2023/10/01 00:56:53;;;;;;;0.98;0.50;;;14.20;99.90;;;;;;4431964;32;20098;-61
2023/10/01 00:59:19;;;;;;;0.40;0.40;;;14.10;99.90;;;;;;4435036;32;20794;-61
2023/10/01 01:04:22;;;;;;;0.90;0.70;;;14.10;99.90;;;;;;4434134;32;20084;-62
2023/10/01 01:06:50;;;;;;;2.53;0.95;;;14.10;99.90;;;;;;4436641;32;20108;-62
2023/10/01 01:09:19;;;;;;;1.52;0.73;;;14.10;99.90;;;;;;4433466;32;20077;-62
2023/10/01 01:11:47;;;;;;;0.50;0.50;;;14.00;99.90;;;;;;4421747;32;20080;-62
2023/10/01 01:14:13;;;;;;;0.30;0.30;;;13.90;99.90;;;;;;4422251;32;20127;-61
2023/10/01 01:16:40;;;;;;;1.25;1.05;;;14.00;99.90;;;;;;4433973;32;20101;-61
2023/10/01 01:19:09;;;;;;;1.40;1.05;;;14.00;99.90;;;;;;4434751;32;20086;-62
2023/10/01 01:21:34;;;;;;;0.73;0.73;;;14.10;99.90;;;;;;4431535;32;20135;-61
2023/10/01 01:24:03;;;;;;;0.82;0.77;;;13.90;99.90;;;;;;4417289;32;20480;-61
2023/10/01 01:26:29;;;;;;;0.37;0.37;;;14.00;99.90;;;;;;4430281;32;20220;-61
2023/10/01 01:28:54;;;;;;;0.37;0.37;;;14.10;99.90;;;;;;4434376;32;20514;-62
2023/10/01 01:31:26;;;;;;;0.93;0.55;;;14.20;99.90;;;;;;4433441;32;20085;-62
2023/10/01 01:33:55;;;;;;;3.97;0.70;;;14.20;99.90;;;;;;4431541;32;20073;-61
2023/10/01 01:36:21;;;;;;;0.60;0.60;;;14.20;99.90;;;;;;4435383;32;20433;-61
2023/10/01 01:39:26;;;;;;;0.60;0.50;;;14.10;99.90;;;;;;4431376;32;20081;-62
2023/10/01 01:41:52;;;;;;;0.77;0.77;;;14.20;99.90;;;;;;4418776;32;20089;-61
2023/10/01 01:44:18;;;;;;;0.40;0.40;;;14.20;99.90;;;;;;4435694;32;20078;-61
2023/10/01 01:46:59;;;;;;;0.30;0.30;;;14.10;99.90;;;;;;4434630;32;20065;-62
2023/10/01 01:49:25;;;;;;;1.17;0.62;;;14.20;99.90;;;;;;4433303;32;20078;-62
2023/10/01 01:51:59;;;;;;;0.62;0.60;;;14.20;99.90;;;;;;4419717;32;20131;-61
2023/10/01 01:54:27;;;;;;;0.30;0.30;;;14.10;99.90;;;;;;4435039;32;20064;-62
2023/10/01 01:56:55;;;;;;;0.30;0.30;;;14.10;99.90;;;;;;4407408;32;20517;-61
2023/10/01 01:59:23;;;;;;;1.20;0.65;;;14.10;99.90;;;;;;4433773;32;20081;-61
2023/10/01 02:01:49;;;;;;;0.30;0.30;;;14.10;99.90;;;;;;4431385;32;20166;-61
2023/10/01 02:04:15;;;;;;;1.90;0.77;;;14.10;99.90;;;;;;4435631;32;20073;-62
2023/10/01 02:06:42;;;;;;;0.47;0.47;;;14.20;99.90;;;;;;4435251;32;20085;-61
2023/10/01 02:09:12;;;;;;;0.50;0.50;;;14.20;99.90;;;;;;4436770;32;20170;-62
2023/10/01 02:11:38;;;;;;;0.50;0.50;;;14.20;99.90;;;;;;4431524;32;20102;-62
2023/10/01 02:14:05;;;;;;;1.25;0.55;;;14.20;99.90;;;;;;4424096;32;20081;-61
2023/10/01 02:19:11;;;;;;;0.50;0.50;;;14.10;99.90;;;;;;4435894;32;20097;-61
2023/10/01 02:21:57;;;;;;;2.90;1.27;;;14.20;99.90;;;;;;4412785;32;20084;-60
2023/10/01 02:24:23;;;;;;;0.40;0.40;;;14.30;99.90;;;;;;4436553;32;21367;-62
2023/10/01 02:26:53;;;;;;;0.40;0.40;;;14.20;99.90;;;;;;4431913;32;20196;-62
2023/10/01 02:29:24;;;;;;;16.70;0.70;;;14.20;99.90;;;;;;4420581;32;21552;-62
2023/10/01 02:31:55;;;;;;;0.47;0.47;;;14.30;99.90;;;;;;4435687;32;20470;-62
2023/10/01 02:34:21;;;;;;;1.87;0.93;;;14.30;99.90;;;;;;4436171;32;20068;-63
2023/10/01 02:36:47;;;;;;;0.50;0.50;;;14.20;99.90;;;;;;4421795;32;20204;-62
2023/10/01 02:39:28;;;;;;;0.55;0.55;;;14.20;99.90;;;;;;4436966;32;20575;-61
2023/10/01 02:42:20;;;;;;;0.85;0.77;;;14.20;99.90;;;;;;4432952;32;20093;-62
2023/10/01 02:44:40;;;;;;;0.50;0.50;;;14.20;99.90;;;;;;4422622;32;20172;-62
2023/10/01 02:47:24;;;;;;;0.98;0.85;;;14.10;99.90;;;;;;4433663;32;20149;-62
2023/10/01 02:49:52;;;;;;;0.40;0.40;;;14.10;99.90;;;;;;4414010;32;20097;-62
2023/10/01 02:52:22;;;;;;;1.65;0.62;;;14.20;99.90;;;;;;4433800;32;20503;-62
2023/10/01 02:54:57;;;;;;;0.40;0.40;;;14.20;99.90;;;;;;4423410;32;20088;-62
2023/10/01 02:57:24;;;;;;;0.52;0.52;;;14.20;99.90;;;;;;4436494;32;20456;-62
2023/10/01 03:00:30;;;;;;;0.68;0.68;;;14.20;99.90;;;;;;4423136;32;20060;-61
2023/10/01 03:02:37;;;;;;;22.98;1.48;;;14.10;99.90;;;;;;4437218;32;20057;-62
2023/10/01 03:05:06;;;;;;;0.45;0.45;;;14.10;99.90;;;;;;4428259;32;20089;-61
2023/10/01 03:07:36;;;;;;;0.28;0.28;;;14.10;99.90;;;;;;4433391;32;20109;-62
2023/10/01 03:10:11;;;;;;;2.15;1.08;;;14.20;99.90;;;;;;4435110;32;20745;-62
2023/10/01 03:12:40;;;;;;;0.88;0.60;;;14.10;99.90;;;;;;4430317;32;20130;-60
2023/10/01 03:17:57;;;;;;;0.50;0.50;;;14.20;99.90;;;;;;4433581;32;20088;-62
2023/10/01 03:23:13;;;;;;;0.40;0.40;;;14.20;99.90;;;;;;4412507;32;20544;-62
2023/10/01 03:25:42;;;;;;;0.70;0.70;;;14.20;99.90;;;;;;4420029;32;20423;-62
2023/10/01 03:28:25;;;;;;;0.40;0.40;;;14.10;99.90;;;;;;4422694;32;20085;-62
2023/10/01 03:30:52;;;;;;;1.25;0.45;;;14.10;99.90;;;;;;4424781;32;20060;-60
2023/10/01 03:33:20;;;;;;;0.68;0.68;;;14.10;99.90;;;;;;4436889;32;20512;-62
2023/10/01 03:35:47;;;;;;;0.30;0.30;;;14.20;99.90;;;;;;4434046;32;20549;-60
2023/10/01 03:38:14;;;;;;;0.30;0.30;;;14.20;99.90;;;;;;4436687;32;20066;-63
2023/10/01 03:42:17;;;;;;;0.77;0.45;;;14.20;99.90;;;;;;4434985;32;20073;-64
2023/10/01 03:43:35;;;;;;;0.40;0.40;;;14.20;99.90;;;;;;4423263;32;20109;-63
2023/10/01 03:46:26;;;;;;;0.57;0.50;;;14.20;99.90;;;;;;4421337;32;20134;-63
2023/10/01 03:48:58;;;;;;;1.35;1.23;;;14.30;99.90;;;;;;4401780;32;20130;-63
2023/10/01 03:51:29;;;;;;;0.50;0.50;;;14.20;99.90;;;;;;4437768;32;20520;-62
2023/10/01 03:54:00;;;;;;;0.40;0.35;;;14.20;99.90;;;;;;4420443;32;20080;-63
2023/10/01 03:56:30;;;;;;;2.53;0.85;;;14.20;99.90;;;;;;4437023;32;20061;-63
2023/10/01 03:58:57;;;;;;;0.30;0.30;;;14.30;99.90;;;;;;4422022;32;20150;-63
2023/10/01 04:01:33;;;;;;;4.40;0.77;;;14.20;99.90;;;;;;4421704;32;20486;-63
2023/10/01 04:04:00;;;;;;;0.37;0.37;;;14.20;99.90;;;;;;4433901;32;20064;-63
2023/10/01 04:06:29;;;;;;;0.57;0.57;;;14.10;99.90;;;;;;4435894;32;20060;-63
2023/10/01 04:08:55;;;;;;;0.40;0.40;;;14.10;99.90;;;;;;4435916;32;20093;-62
2023/10/01 04:11:41;;;;;;;0.65;0.40;;;14.20;99.90;;;;;;4436354;32;20090;-63
2023/10/01 04:14:08;;;;;;;0.52;0.52;;;14.20;99.90;;;;;;4420997;32;20140;-63
2023/10/01 04:16:34;;;;;;;0.40;0.40;;;14.20;99.90;;;;;;4417937;32;20098;-63
2023/10/01 04:19:00;;;;;;;0.50;0.50;;;14.30;99.90;;;;;;4418412;32;20081;-62
2023/10/01 04:21:25;;;;;;;0.60;0.60;;;14.20;99.90;;;;;;4438766;32;21027;-63
2023/10/01 04:23:51;;;;;;;0.77;0.77;;;14.20;99.90;;;;;;4423373;32;20402;-63
2023/10/01 04:26:17;;;;;;;13.27;1.90;;;14.20;99.90;;;;;;4431495;32;20115;-63
2023/10/01 04:28:47;;;;;;;1.08;1.00;;;14.20;99.90;;;;;;4435414;32;20135;-63
2023/10/01 04:31:19;;;;;;;0.52;0.50;;;14.10;99.90;;;;;;4401772;32;20069;-63
2023/10/01 04:33:48;;;;;;;2.40;0.52;;;14.10;99.90;;;;;;4433440;32;20148;-63
2023/10/01 04:36:16;;;;;;;0.40;0.40;;;14.10;99.90;;;;;;4405205;32;20129;-63
2023/10/01 04:38:43;;;;;;;1.20;0.77;;;14.20;99.90;;;;;;4419904;32;20143;-63
2023/10/01 04:41:13;;;;;;;8.30;1.45;;;14.20;99.90;;;;;;4432775;32;20088;-64
2023/10/01 04:43:51;;;;;;;1.58;0.47;;;14.20;99.90;;;;;;4434271;32;20096;-63
2023/10/01 04:46:21;;;;;;;3.08;0.68;;;14.20;99.90;;;;;;4425182;32;20105;-63
2023/10/01 04:48:47;;;;;;;0.40;0.40;;;14.20;99.90;;;;;;4403975;32;20104;-63
2023/10/01 04:51:13;;;;;;;3.37;1.02;;;14.30;99.90;;;;;;4427817;32;20061;-63
2023/10/01 04:53:39;;;;;;;0.47;0.47;;;14.10;99.90;;;;;;4422236;32;20073;-63
2023/10/01 04:56:06;;;;;;;0.62;0.50;;;14.10;99.90;;;;;;4427941;32;20102;-63
2023/10/01 04:58:36;;;;;;;1.55;0.57;;;14.10;99.90;;;;;;4415262;32;20065;-62
2023/10/01 05:01:07;;;;;;;0.50;0.50;;;14.20;99.90;;;;;;4417997;32;20461;-62
2023/10/01 05:03:40;;;;;;;0.60;0.60;;;14.20;99.90;;;;;;4425170;32;20105;-62
2023/10/01 05:06:12;;;;;;;0.40;0.40;;;14.30;99.90;;;;;;4414072;32;20061;-61
2023/10/01 05:08:38;;;;;;;0.52;0.52;;;14.30;99.90;;;;;;4425541;32;20074;-62
2023/10/01 05:11:11;;;;;;;0.50;0.50;;;14.30;99.90;;;;;;4408746;32;20092;-62
2023/10/01 05:13:41;;;;;;;0.80;0.68;;;14.30;99.90;;;;;;4414787;32;20592;-62
2023/10/01 05:16:13;;;;;;;0.60;0.60;;;14.20;99.90;;;;;;4424662;32;20078;-61
2023/10/01 05:18:43;;;;;;;0.40;0.40;;;14.20;99.90;;;;;;4400075;32;20704;-60
2023/10/01 05:21:12;;;;;;;1.67;0.37;;;14.30;99.90;;;;;;4428042;32;20065;-61
2023/10/01 05:23:39;;;;;;;0.60;0.60;;;14.30;99.90;;;;;;4421584;32;20061;-62
2023/10/01 05:26:08;;;;;;;0.40;0.40;;;14.30;99.90;;;;;;4406715;32;20496;-61
2023/10/01 05:28:36;;;;;;;0.50;0.50;;;14.30;99.90;;;;;;4401097;32;20115;-62
2023/10/01 05:31:05;;;;;;;0.73;0.73;;;14.20;99.90;;;;;;4407377;32;20062;-61
2023/10/01 05:33:33;;;;;;;0.40;0.40;;;14.30;99.90;;;;;;4411605;32;20093;-62
2023/10/01 05:36:03;;;;;;;7.75;2.30;;;14.30;99.90;;;;;;4410280;32;20088;-62
2023/10/01 05:38:33;;;;;;;;;;;14.30;99.90;;;;;;4412777;32;20076;-62
2023/10/01 05:41:04;;;;;;;0.30;0.30;;;14.30;99.90;;;;;;4423535;32;20032;-64
2023/10/01 05:43:35;;;;;;;0.43;0.43;;;14.40;99.90;;;;;;4428108;32;20088;-62
2023/10/01 05:46:01;;;;;;;0.45;0.45;;;14.30;99.90;;;;;;4424726;32;20401;-62
2023/10/01 05:48:28;;;;;;;0.65;0.60;;;14.30;99.90;;;;;;4431615;32;20070;-62
2023/10/01 05:50:57;;;;;;;0.60;0.60;;;14.30;99.90;;;;;;4423560;32;20458;-62
2023/10/01 05:53:23;;;;;;;0.40;0.40;;;14.30;99.90;;;;;;4423449;32;20584;-62
2023/10/01 05:55:49;;;;;;;1.30;0.43;;;14.20;99.90;;;;;;4438168;32;20118;-62
2023/10/01 05:58:16;;;;;;;0.40;0.40;;;14.30;99.90;;;;;;4437225;32;20093;-63
2023/10/01 06:00:45;;;;;;;0.32;0.32;;;14.30;99.90;;;;;;4438873;32;20135;-61
2023/10/01 06:03:13;;;;;;;0.50;0.50;;;14.30;99.90;;;;;;4423289;32;20183;-62
2023/10/01 06:09:09;;;;;;;0.40;0.40;;;14.40;99.90;;;;;;4438203;32;20084;-62
2023/10/01 06:11:13;;;;;;;0.30;0.30;;;14.40;99.90;;;;;;4423216;32;20480;-62
2023/10/01 06:13:48;;;;;;;0.40;0.40;;;14.40;99.90;;;;;;4424514;32;20084;-61
2023/10/01 06:16:15;;;;;;;0.40;0.40;;;14.50;99.90;;;;;;4412113;32;20085;-61
2023/10/01 06:18:49;;;;;;;0.60;0.60;;;14.40;99.90;;;;;;4423438;32;20097;-63
2023/10/01 06:21:18;;;;;;;0.50;0.50;;;14.40;99.90;;;;;;4426101;32;20537;-64
2023/10/01 06:23:51;;;;;;;0.40;0.40;;;14.40;99.90;;;;;;4439329;32;20089;-61
2023/10/01 06:26:33;;;;;;;0.40;0.40;;;14.40;99.90;;;;;;4437480;32;20084;-63
2023/10/01 06:29:01;;;;;;;0.65;0.47;;;14.40;99.90;;;;;;4438037;32;20516;-63
2023/10/01 06:31:27;;;;;;;0.45;0.45;;;14.50;99.90;;;;;;4438673;32;20096;-63
2023/10/01 06:33:53;;;;;;;1.70;1.23;;;14.60;99.90;;;;;;4438521;32;20097;-62
2023/10/01 06:36:21;;;;;;;0.68;0.68;;;14.60;99.90;;;;;;4412137;32;20064;-63
2023/10/01 06:38:48;;;;;;;1.02;0.60;;;14.70;99.90;;;;;;4410649;32;20090;-63
2023/10/01 06:41:16;;;;;;;0.30;0.30;;;14.80;99.90;;;;;;4424888;32;20124;-62
2023/10/01 06:43:48;;;;;;;21.92;0.90;;;14.90;99.90;;;;;;4423500;32;20085;-63
2023/10/01 06:46:16;;;;;;;0.30;0.30;;;14.90;99.90;;;;;;4438215;32;20116;-64
2023/10/01 06:48:42;;;;;;;3.80;0.52;;;14.90;99.90;;;;;;4437333;32;20089;-63
2023/10/01 06:51:08;;;;;;;1.85;1.05;;;14.90;99.90;;;;;;4437693;32;20112;-62
2023/10/01 06:53:53;;;;;;;1.23;0.73;;;14.90;99.90;;;;;;4436863;32;20484;-63
2023/10/01 06:56:21;;;;;;;0.90;0.68;;;15.00;99.90;;;;;;4435767;32;20508;-63
2023/10/01 07:01:34;;;;;;;0.40;0.40;;;15.00;99.90;;;;;;4437553;32;20093;-64
2023/10/01 07:04:01;;;;;;;0.62;0.50;;;15.00;99.90;;;;;;4439355;32;20093;-64
2023/10/01 07:06:28;;;;;;;0.50;0.50;;;15.10;99.90;;;;;;4437370;32;20154;-63
2023/10/01 07:08:54;;;;;;;0.60;0.60;;;15.20;99.90;;;;;;4440018;32;20056;-64
2023/10/01 07:11:21;;;;;;;0.60;0.60;;;15.30;99.90;;;;;;4437331;32;20110;-64
2023/10/01 07:13:48;;;;;;;0.50;0.50;;;15.30;99.90;;;;;;4439527;32;20465;-64
2023/10/01 07:16:18;;;;;;;0.37;0.37;;;15.40;99.90;;;;;;4434636;32;20081;-64
2023/10/01 07:18:44;;;;;;;0.40;0.40;;;15.50;99.90;;;;;;4436725;32;20108;-63
2023/10/01 07:21:11;;;;;;;0.40;0.40;;;15.50;99.90;;;;;;4437049;32;20056;-63
2023/10/01 07:23:37;;;;;;;0.30;0.30;;;15.50;99.90;;;;;;4433708;32;20497;-64
2023/10/01 07:26:03;;;;;;;0.37;0.37;;;15.40;99.90;;;;;;4436552;32;20123;-62
2023/10/01 07:28:30;;;;;;;1.25;0.77;;;15.40;99.90;;;;;;4435527;32;20081;-63
2023/10/01 07:31:01;;;;;;;0.85;0.40;;;15.40;99.90;;;;;;4436532;32;20093;-61
2023/10/01 07:33:28;;;;;;;0.77;0.77;;;15.40;99.90;;;;;;4437727;32;20122;-61
2023/10/01 07:36:02;;;;;;;1.17;1.08;;;15.50;99.90;;;;;;4435953;32;20560;-61
2023/10/01 07:38:28;;;;;;;0.43;0.43;;;15.50;99.90;;;;;;4435981;32;20093;-61
2023/10/01 07:40:57;;;;;;;0.70;0.65;;;15.60;99.90;;;;;;4423425;32;20947;-62
2023/10/01 07:43:25;;;;;;;3.70;0.80;;;15.70;99.90;;;;;;4435660;32;20076;-61
2023/10/01 07:45:59;;;;;;;0.37;0.37;;;15.80;99.90;;;;;;4435607;32;20462;-62
2023/10/01 07:48:27;;;;;;;0.60;0.60;;;15.80;99.90;;;;;;4437798;32;20065;-62
2023/10/01 07:50:54;;;;;;;0.40;0.40;;;16.00;99.90;;;;;;4436036;32;20397;-62
2023/10/01 07:53:20;;;;;;;4.80;0.62;;;16.00;99.90;;;;;;4423644;32;20434;-61
2023/10/01 07:55:46;;;;;;;0.90;0.82;;;16.10;99.90;;;;;;4436180;32;20306;-63
2023/10/01 07:59:17;;;;;;;0.55;0.55;;;16.20;99.90;;;;;;4433832;32;20108;-61
2023/10/01 08:00:59;;;;;;;0.80;0.55;;;16.20;99.90;;;;;;4434154;32;20065;-61
2023/10/01 08:06:10;;;;;;;0.60;0.60;;;16.30;99.90;;;;;;4429611;32;20073;-62
2023/10/01 08:08:37;;;;;;;0.45;0.45;;;16.30;99.90;;;;;;4435737;32;20089;-63
2023/10/01 08:11:03;;;;;;;0.55;0.55;;;16.30;99.90;;;;;;4418249;32;20060;-62
2023/10/01 08:13:30;;;;;;;0.52;0.40;;;16.20;99.90;;;;;;4417769;32;20088;-63
2023/10/01 08:15:57;;;;;;;3.50;0.60;;;16.30;99.90;;;;;;4437452;32;20097;-63
2023/10/01 08:19:41;;;;;;;0.62;0.62;;;16.30;99.90;;;;;;4435155;32;20068;-62
2023/10/01 08:21:15;;;;;;;0.65;0.65;;;16.40;99.90;;;;;;4434092;32;20413;-61
2023/10/01 08:23:49;;;;;;;0.50;0.50;;;16.40;99.90;;;;;;4438730;32;20430;-63
2023/10/01 08:27:29;;;;;;;0.40;0.40;;;16.40;99.90;;;;;;4433185;32;20089;-62
2023/10/01 08:29:01;;;;;;;0.80;0.80;;;16.40;99.90;;;;;;4421140;32;20156;-62
2023/10/01 08:32:08;;;;;;;1.02;0.93;;;16.40;99.90;;;;;;4436153;32;20104;-61
2023/10/01 08:34:22;;;;;;;3.40;0.40;;;16.50;99.90;;;;;;4436343;32;20803;-62
2023/10/01 08:36:49;;;;;;;1.73;0.95;;;16.50;99.90;;;;;;4437915;32;20084;-62
2023/10/01 08:39:33;;;;;;;26.20;1.90;;;16.50;99.90;;;;;;4437383;32;20082;-63
2023/10/01 08:42:08;;;;;;;0.40;0.40;;;16.50;99.90;;;;;;4435369;32;20104;-61
2023/10/01 08:44:44;;;;;;;0.52;0.50;;;16.50;99.90;;;;;;4435620;32;20085;-61
2023/10/01 08:47:21;;;;;;;0.50;0.50;;;16.60;99.90;;;;;;4437151;32;20065;-62
2023/10/01 08:49:51;;;;;;;0.37;0.37;;;16.70;99.90;;;;;;4437845;32;20560;-62
2023/10/01 08:52:25;;;;;;;2.87;1.12;;;16.70;99.90;;;;;;4435909;32;20227;-61
2023/10/01 08:54:53;;;;;;;0.30;0.30;;;16.90;99.90;;;;;;4436313;32;20146;-61
2023/10/01 08:57:36;;;;;;;0.40;0.40;;;16.90;99.90;;;;;;4424022;32;20092;-62
2023/10/01 09:00:14;;;;;;;2.80;1.42;;;17.00;99.90;;;;;;4433967;32;20117;-62
2023/10/01 09:02:38;;;;;;;0.32;0.32;;;17.10;99.90;;;;;;4432101;32;20638;-61
2023/10/01 09:05:08;;;;;;;0.40;0.40;;;17.20;99.90;;;;;;4432165;32;20833;-63
2023/10/01 09:07:41;;;;;;;0.47;0.47;;;17.20;99.90;;;;;;4437455;32;20148;-62
2023/10/01 09:10:08;;;;;;;1.37;0.43;;;17.20;99.90;;;;;;4422260;32;20478;-61
2023/10/01 09:12:34;;;;;;;0.32;0.32;;;17.30;99.90;;;;;;4434132;32;20088;-63
2023/10/01 09:15:01;;;;;;;0.50;0.50;;;17.30;99.90;;;;;;4436989;32;20061;-63
2023/10/01 09:17:26;;;;;;;4.50;0.98;;;17.30;99.90;;;;;;4435405;32;20294;-63
2023/10/01 09:19:52;;;;;;;0.85;0.85;;;17.30;99.90;;;;;;4435868;32;20144;-64
2023/10/01 09:22:35;;;;;;;0.40;0.40;;;17.40;99.90;;;;;;4434376;32;20080;-63
2023/10/01 09:25:22;;;;;;;0.60;0.60;;;17.50;99.90;;;;;;4433035;32;20155;-63
2023/10/01 09:28:29;;;;;;;0.98;0.60;;;17.50;99.90;;;;;;4434153;32;20064;-63
2023/10/01 09:30:57;;;;;;;0.40;0.40;;;17.50;99.90;;;;;;4433266;32;20085;-63
2023/10/01 09:33:24;;;;;;;0.30;0.30;;;17.40;99.90;;;;;;4421166;32;20089;-63
2023/10/01 09:35:50;;;;;;;0.50;0.50;;;17.50;99.90;;;;;;4435025;32;20073;-63
2023/10/01 09:38:19;;;;;;;0.50;0.50;;;17.60;99.90;;;;;;4434849;32;20081;-63
2023/10/01 09:40:46;;;;;;;0.50;0.50;;;17.80;99.90;;;;;;4435873;32;20097;-63
2023/10/01 09:43:29;;;;;;;4.68;0.75;;;17.90;99.90;;;;;;4434071;32;20153;-63
2023/10/01 09:45:58;;;;;;;0.40;0.40;;;18.10;99.90;;;;;;4436953;32;20446;-63
2023/10/01 09:48:30;;;;;;;0.85;0.70;;;18.30;99.90;;;;;;4436846;32;20539;-63
2023/10/01 09:51:03;;;;;;;0.73;0.73;;;18.50;99.90;;;;;;4435142;32;20084;-63
2023/10/01 09:53:38;;;;;;;0.98;0.40;;;18.60;99.90;;;;;;4435109;32;20065;-63
2023/10/01 09:56:04;;;;;;;0.30;0.30;;;18.60;99.90;;;;;;4433651;32;20713;-63
2023/10/01 09:58:31;;;;;;;0.73;0.30;;;18.70;99.90;;;;;;4435099;32;20081;-63
2023/10/01 10:01:01;;;;;;;0.30;0.30;;;18.70;99.90;;;;;;4435598;32;20061;-63
2023/10/01 10:03:36;;;;;;;1.27;0.85;;;18.80;99.90;;;;;;4433547;32;20101;-63
2023/10/01 10:06:06;;;;;;;0.30;0.30;;;18.90;99.90;;;;;;4434272;32;20544;-64
2023/10/01 10:08:35;;;;;;;0.22;0.22;;;19.00;99.90;;;;;;4436319;32;20084;-62
2023/10/01 10:11:06;;;;;;;2.40;1.12;;;19.10;99.90;;;;;;4436865;32;20109;-60
2023/10/01 10:13:36;;;;;;;;;;;19.10;99.90;;;;;;4437819;32;20065;-62
2023/10/01 10:16:28;;;;;;;0.30;0.30;;;19.20;99.90;;;;;;4435170;32;20000;-62
2023/10/01 10:19:09;;;;;;;1.75;1.10;;;19.20;99.90;;;;;;4424496;32;20058;-61
2023/10/01 10:24:47;;;;;;;0.60;0.60;;;19.20;99.90;;;;;;4434371;32;20436;-61
2023/10/01 10:27:35;;;;;;;0.30;0.30;;;19.30;99.90;;;;;;4433407;32;20097;-63
2023/10/01 10:30:06;;;;;;;0.37;0.37;;;19.50;99.90;;;;;;4434951;32;20097;-61
2023/10/01 10:32:51;;;;;;;0.65;0.50;;;19.60;99.90;;;;;;4434055;32;20123;-63
2023/10/01 10:35:18;;;;;;;2.78;1.35;;;19.80;99.90;;;;;;4438694;32;20080;-61
2023/10/01 10:37:45;;;;;;;0.50;0.50;;;19.90;99.90;;;;;;4437843;32;20512;-61
2023/10/01 10:42:40;;;;;;;0.43;0.43;;;19.80;99.90;;;;;;4436339;32;20064;-62
2023/10/01 10:47:58;;;;;;;1.00;0.52;;;19.70;99.90;;;;;;4435984;32;20085;-62
2023/10/01 10:50:45;;;;;;;0.60;0.60;;;19.70;99.90;;;;;;4438614;32;20726;-61
2023/10/01 10:53:15;;;;;;;0.55;0.55;;;19.70;99.90;;;;;;4438379;32;20101;-62
2023/10/01 10:56:05;;;;;;;0.30;0.30;;;19.80;99.90;;;;;;4437466;32;20133;-61
2023/10/01 10:58:38;;;;;;;0.57;0.57;;;19.80;99.90;;;;;;4426313;32;20544;-62
2023/10/01 11:01:19;;;;;;;1.02;0.93;;;19.90;99.90;;;;;;4436380;32;20076;-61
2023/10/01 11:03:50;;;;;;;1.48;0.70;;;19.80;99.90;;;;;;4437923;32;20101;-61
2023/10/01 11:06:22;;;;;;;2.05;0.50;;;19.80;99.90;;;;;;4439693;32;20085;-61
2023/10/01 11:08:50;;;;;;;0.55;0.55;;;19.90;99.90;;;;;;4436445;32;20407;-61
2023/10/01 11:11:28;;;;;;;0.30;0.30;;;20.00;99.90;;;;;;4423180;32;20081;-61
2023/10/01 11:14:03;;;;;;;1.23;1.05;;;20.00;99.90;;;;;;4423926;32;20851;-61
2023/10/01 11:16:33;;;;;;;2.50;1.17;;;20.00;99.90;;;;;;4436062;32;20081;-62
2023/10/01 11:19:12;;;;;;;0.40;0.40;;;20.30;99.90;;;;;;4439158;32;20149;-62
2023/10/01 11:21:45;;;;;;;2.17;0.73;;;20.60;99.90;;;;;;4439391;32;20100;-62
2023/10/01 11:24:13;;;;;;;0.77;0.77;;;20.90;99.90;;;;;;4436064;32;20096;-62
2023/10/01 11:27:25;;;;;;;8.70;0.80;;;20.80;99.90;;;;;;4420034;32;20080;-62
2023/10/01 11:30:12;;;;;;;0.50;0.50;;;20.60;99.90;;;;;;4426707;32;20093;-62
2023/10/01 11:32:58;;;;;;;1.40;0.65;;;20.40;99.90;;;;;;4432243;32;20141;-63
2023/10/01 11:35:31;;;;;;;8.77;1.10;;;20.40;99.90;;;;;;4429287;32;20085;-62
2023/10/01 11:37:58;;;;;;;0.43;0.40;;;20.30;99.90;;;;;;4422570;32;20440;-62
2023/10/01 11:41:06;;;;;;;0.95;0.60;;;20.30;99.90;;;;;;4436595;32;20064;-61
2023/10/01 11:43:23;;;;;;;0.62;0.60;;;20.30;99.90;;;;;;4423260;32;20502;-62
2023/10/01 11:46:18;;;;;;;0.35;0.35;;;20.40;99.90;;;;;;4436411;32;20531;-62
2023/10/01 11:48:56;;;;;;;0.40;0.40;;;20.70;99.90;;;;;;4434251;32;81663;-63
2023/10/01 11:51:31;;;;;;;2.03;1.02;;;21.20;99.90;;;;;;4391259;32;20058;-63
2023/10/01 11:53:58;;;;;;;0.30;0.30;;;21.90;99.90;;;;;;4433056;32;20451;-64
2023/10/01 11:56:25;;;;;;;0.85;0.60;;;22.30;99.90;;;;;;4421139;32;20146;-63
2023/10/01 11:58:50;;;;;;;0.65;0.57;;;22.40;99.90;;;;;;4420157;32;20053;-63
2023/10/01 12:01:16;;;;;;;0.30;0.30;;;22.40;99.90;;;;;;4436383;32;20205;-63
2023/10/01 12:03:57;;;;;;;2.87;0.95;;;22.10;99.90;;;;;;4421473;32;20086;-63
2023/10/01 12:06:34;;;;;;;0.75;0.75;;;21.70;99.90;;;;;;4434074;32;20101;-63
2023/10/01 12:09:00;;;;;;;0.77;0.70;;;21.50;99.90;;;;;;4430050;32;20089;-63
2023/10/01 12:11:26;;;;;;;3.12;0.80;;;21.20;99.90;;;;;;4412481;32;20105;-63
2023/10/01 12:14:09;;;;;;;0.40;0.40;;;20.90;99.90;;;;;;4430631;32;20061;-61
2023/10/01 12:16:39;;;;;;;3.87;0.60;;;20.90;99.90;;;;;;4432872;32;20061;-63
2023/10/01 12:19:36;;;;;;;0.35;0.35;;;20.60;99.90;;;;;;4433338;32;20445;-63
2023/10/01 12:22:06;;;;;;;0.62;0.62;;;20.50;99.90;;;;;;4418338;32;20085;-63
2023/10/01 12:24:39;;;;;;;0.45;0.45;;;20.60;99.90;;;;;;4423798;32;20093;-63
2023/10/01 12:27:07;;;;;;;5.05;1.30;;;20.60;99.90;;;;;;4421513;32;20089;-64
2023/10/01 12:29:42;;;;;;;1.17;0.73;;;20.60;99.90;;;;;;4431212;32;20061;-63
2023/10/01 12:32:09;;;;;;;0.22;0.22;;;20.60;99.90;;;;;;4418902;32;20492;-64
2023/10/01 12:34:35;;;;;;;1.08;0.80;;;20.60;99.90;;;;;;4434043;32;20084;-63
2023/10/01 12:37:07;;;;;;;0.82;0.57;;;20.50;99.90;;;;;;4429861;32;20076;-63
2023/10/01 12:39:34;;;;;;;3.33;1.30;;;20.60;99.90;;;;;;4433283;32;20080;-64
2023/10/01 12:42:04;;;;;;;0.60;0.60;;;20.70;99.90;;;;;;4432374;32;20163;-63
2023/10/01 12:44:31;;;;;;;0.87;0.73;;;20.60;99.90;;;;;;4419298;32;20061;-63
2023/10/01 12:47:00;;;;;;;0.50;0.50;;;20.50;99.90;;;;;;4433131;32;20150;-64
2023/10/01 12:49:32;;;;;;;0.40;0.40;;;20.50;99.90;;;;;;4430976;32;21311;-64
2023/10/01 12:51:59;;;;;;;0.35;0.35;;;20.40;99.90;;;;;;4429878;32;20564;-64
2023/10/01 12:54:26;;;;;;;0.30;0.30;;;20.40;99.90;;;;;;4420836;32;20065;-64
2023/10/01 12:57:25;;;;;;;2.78;1.50;;;20.50;99.90;;;;;;4430217;32;20082;-63
2023/10/01 12:59:42;;;;;;;0.68;0.68;;;20.50;99.90;;;;;;4424882;32;20455;-62
2023/10/01 13:05:43;;;;;;;0.40;0.40;;;20.40;99.90;;;;;;4435001;32;20392;-62
2023/10/01 13:07:45;;;;;;;1.05;0.95;;;20.40;99.90;;;;;;4409972;32;20068;-63
2023/10/01 13:10:11;;;;;;;2.03;0.40;;;20.30;99.90;;;;;;4416570;32;20056;-63
2023/10/01 13:12:53;;;;;;;0.75;0.40;;;20.30;99.90;;;;;;4420342;32;20073;-63
2023/10/01 13:15:29;;;;;;;0.85;0.47;;;20.30;99.90;;;;;;4428865;32;20537;-63
2023/10/01 13:18:00;;;;;;;0.30;0.30;;;20.30;99.90;;;;;;4434316;32;20061;-62
2023/10/01 13:20:28;;;;;;;0.75;0.75;;;20.20;99.90;;;;;;4421673;32;20097;-62
2023/10/01 13:22:59;;;;;;;0.30;0.30;;;20.10;99.90;;;;;;4413578;32;20084;-63
2023/10/01 13:25:26;;;;;;;0.30;0.30;;;20.10;99.90;;;;;;4419107;32;20069;-62
2023/10/01 13:28:08;;;;;;;0.68;0.60;;;20.10;99.90;;;;;;4411333;32;20073;-62
2023/10/01 13:31:07;;;;;;;0.50;0.50;;;20.10;99.90;;;;;;4431287;32;20089;-62
2023/10/01 13:33:25;;;;;;;0.47;0.40;;;20.10;99.90;;;;;;4412615;32;20097;-63
2023/10/01 13:35:58;;;;;;;1.85;0.37;;;20.20;99.90;;;;;;4430456;32;20085;-63
2023/10/01 13:38:37;;;;;;;0.45;0.45;;;20.10;99.90;;;;;;4416695;32;20081;-63